createdAt,value
2019-05-29T00:02:24.704Z,61.94
2019-05-29T00:04:56.031Z,62.07
2019-05-29T00:07:27.299Z,61.65
2019-05-29T00:09:58.615Z,61.82
2019-05-29T00:12:29.869Z,61.70
2019-05-29T00:15:01.200Z,63.52
2019-05-29T00:17:32.486Z,63.78
2019-05-29T00:20:04.365Z,62.92
2019-05-29T00:22:35.666Z,64.79
2019-05-29T00:25:08.521Z,64.05
2019-05-29T00:27:39.875Z,65.26
2019-05-29T00:30:11.207Z,66.28
2019-05-29T00:32:42.482Z,64.75
2019-05-29T00:35:14.348Z,65.43
2019-05-29T00:37:45.761Z,66.60
2019-05-29T00:40:17.222Z,66.86
2019-05-29T00:42:49.456Z,66.18
2019-05-29T00:45:20.993Z,64.86
2019-05-29T00:47:52.170Z,65.44
2019-05-29T00:50:23.572Z,64.86
2019-05-29T00:52:54.842Z,63.89
2019-05-29T00:55:26.074Z,64.83
2019-05-29T00:57:57.549Z,64.19
2019-05-29T01:00:28.758Z,64.37
2019-05-29T01:03:00.431Z,64.20
2019-05-29T01:05:31.757Z,63.95
2019-05-29T01:08:03.052Z,63.83
2019-05-29T01:10:34.385Z,64.64
2019-05-29T01:13:05.683Z,63.29
2019-05-29T01:15:36.930Z,64.16
2019-05-29T01:18:08.234Z,64.37
2019-05-29T01:20:39.466Z,64.36
2019-05-29T01:23:10.716Z,64.97
2019-05-29T01:25:41.864Z,64.49
2019-05-29T01:28:13.144Z,65.23
2019-05-29T01:30:44.476Z,65.01
2019-05-29T01:33:18.541Z,65.65
2019-05-29T01:35:48.803Z,64.03
2019-05-29T01:38:19.971Z,64.81
2019-05-29T01:40:52.582Z,64.92
2019-05-29T01:43:24.712Z,64.73
2019-05-29T01:45:55.865Z,65.75
2019-05-29T01:48:27.820Z,65.27
2019-05-29T01:50:59.259Z,64.16
2019-05-29T01:53:30.548Z,65.28
2019-05-29T01:56:01.872Z,65.32
2019-05-29T01:58:33.159Z,65.17
2019-05-29T02:01:04.524Z,65.97
2019-05-29T02:03:35.791Z,65.85
2019-05-29T02:06:07.107Z,66.72
2019-05-29T02:08:38.393Z,65.84
2019-05-29T02:11:09.679Z,66.25
2019-05-29T02:13:40.872Z,66.22
2019-05-29T02:16:12.238Z,66.21
2019-05-29T02:18:43.542Z,66.10
2019-05-29T02:21:15.925Z,66.64
2019-05-29T02:23:47.186Z,66.85
2019-05-29T02:26:18.436Z,67.08
2019-05-29T02:28:49.653Z,66.89
2019-05-29T02:31:21.994Z,67.29
2019-05-29T02:33:53.977Z,67.30
2019-05-29T02:36:27.140Z,67.10
2019-05-29T02:38:58.541Z,67.82
2019-05-29T02:41:29.991Z,67.34
2019-05-29T02:44:02.232Z,67.67
2019-05-29T02:46:33.516Z,68.21
2019-05-29T02:49:04.927Z,67.75
2019-05-29T02:51:36.345Z,67.84
2019-05-29T02:54:07.535Z,68.22
2019-05-29T02:56:42.401Z,69.23
2019-05-29T02:59:11.850Z,68.67
2019-05-29T03:01:43.231Z,68.58
2019-05-29T03:04:14.642Z,68.00
2019-05-29T03:06:45.981Z,68.41
2019-05-29T03:09:17.259Z,67.51
2019-05-29T03:11:48.566Z,67.48
2019-05-29T03:14:19.898Z,67.40
2019-05-29T03:16:51.149Z,67.89
2019-05-29T03:19:23.811Z,67.26
2019-05-29T03:21:55.127Z,67.45
2019-05-29T03:24:26.715Z,67.81
2019-05-29T03:26:59.479Z,67.30
2019-05-29T03:29:31.975Z,67.20
2019-05-29T03:32:03.491Z,67.93
2019-05-29T03:34:42.382Z,68.01
2019-05-29T03:37:07.686Z,67.31
2019-05-29T03:39:38.831Z,67.52
2019-05-29T03:42:10.155Z,67.60
2019-05-29T03:44:42.357Z,67.10
2019-05-29T03:47:13.709Z,67.19
2019-05-29T03:49:44.994Z,67.93
2019-05-29T03:52:16.412Z,66.77
2019-05-29T03:54:47.568Z,67.67
2019-05-29T03:57:18.831Z,66.35
2019-05-29T03:59:50.000Z,66.50
2019-05-29T04:02:21.347Z,66.10
2019-05-29T04:04:52.522Z,65.79
2019-05-29T04:07:23.755Z,65.96
2019-05-29T04:09:55.030Z,65.62
2019-05-29T04:12:26.938Z,65.50
2019-05-29T04:14:59.125Z,64.48
2019-05-29T04:17:33.689Z,65.28
2019-05-29T04:20:06.531Z,64.84
2019-05-29T04:22:43.569Z,63.15
2019-05-29T04:25:14.841Z,64.26
2019-05-29T04:27:49.110Z,63.34
2019-05-29T04:30:20.500Z,63.14
2019-05-29T04:32:51.875Z,61.58
2019-05-29T04:35:23.192Z,61.34
2019-05-29T04:37:54.449Z,62.11
2019-05-29T04:40:25.760Z,62.38
2019-05-29T04:42:57.396Z,61.43
2019-05-29T04:45:30.858Z,60.99
2019-05-29T04:48:02.272Z,61.43
2019-05-29T04:50:35.728Z,60.78
2019-05-29T04:53:06.605Z,60.50
2019-05-29T04:55:38.943Z,60.22
2019-05-29T04:58:10.218Z,60.50
2019-05-29T05:00:57.785Z,59.10
2019-05-29T05:03:14.480Z,59.68
2019-05-29T05:05:45.800Z,59.57
2019-05-29T05:08:17.185Z,58.42
2019-05-29T05:10:48.509Z,59.04
2019-05-29T05:13:20.339Z,59.04
2019-05-29T05:15:53.492Z,58.60
2019-05-29T05:18:24.730Z,58.18
2019-05-29T05:20:56.026Z,58.55
2019-05-29T05:23:27.270Z,58.27
2019-05-29T05:25:58.549Z,58.29
2019-05-29T05:28:30.398Z,57.07
2019-05-29T05:31:01.801Z,57.10
2019-05-29T05:33:33.100Z,57.43
2019-05-29T05:36:04.330Z,56.10
2019-05-29T05:38:36.703Z,56.21
2019-05-29T05:41:08.039Z,56.10
2019-05-29T05:43:39.284Z,56.13
2019-05-29T05:46:11.415Z,55.16
2019-05-29T05:48:42.738Z,55.42
2019-05-29T05:51:14.057Z,54.28
2019-05-29T05:53:45.440Z,54.12
2019-05-29T05:56:16.696Z,52.92
2019-05-29T05:58:48.031Z,53.72
2019-05-29T06:01:19.339Z,53.03
2019-05-29T06:03:50.699Z,53.31
2019-05-29T06:06:22.002Z,53.97
2019-05-29T06:08:53.250Z,51.53
2019-05-29T06:11:24.468Z,52.48
2019-05-29T06:13:55.812Z,51.85
2019-05-29T06:16:27.098Z,51.76
2019-05-29T06:18:58.456Z,51.35
2019-05-29T06:21:29.770Z,51.45
2019-05-29T06:24:01.202Z,50.38
2019-05-29T06:26:32.821Z,51.97
2019-05-29T06:29:04.404Z,51.28
2019-05-29T06:31:35.765Z,50.19
2019-05-29T06:34:07.506Z,49.09
2019-05-29T06:36:39.635Z,48.62
2019-05-29T06:39:10.955Z,48.54
2019-05-29T06:41:42.176Z,48.49
2019-05-29T06:44:13.542Z,48.68
2019-05-29T06:46:45.703Z,49.29
2019-05-29T06:49:17.210Z,48.79
2019-05-29T06:51:48.465Z,48.69
2019-05-29T06:54:20.009Z,47.93
2019-05-29T06:56:51.384Z,48.00
2019-05-29T06:59:22.762Z,49.14
2019-05-29T07:01:53.965Z,48.10
2019-05-29T07:04:25.327Z,47.05
2019-05-29T07:06:56.581Z,46.72
2019-05-29T07:09:29.683Z,47.52
2019-05-29T07:12:01.044Z,47.54
2019-05-29T07:14:32.447Z,47.82
2019-05-29T07:17:03.748Z,48.18
2019-05-29T07:19:52.468Z,46.97
2019-05-29T07:22:11.014Z,46.71
2019-05-29T07:24:43.453Z,47.15
2019-05-29T07:27:19.302Z,47.71
2019-05-29T07:29:50.872Z,48.10
2019-05-29T07:32:22.898Z,47.97
2019-05-29T07:35:03.123Z,48.51
2019-05-29T07:37:27.444Z,47.71
2019-05-29T07:40:00.115Z,48.97
2019-05-29T07:42:33.062Z,47.93
2019-05-29T07:45:11.013Z,46.32
2019-05-29T07:47:46.762Z,48.14
2019-05-29T07:50:22.992Z,47.44
2019-05-29T07:52:54.655Z,47.48
2019-05-29T07:55:26.199Z,47.30
2019-05-29T07:57:57.576Z,48.02
2019-05-29T08:00:35.861Z,47.55
2019-05-29T08:03:04.992Z,46.50
2019-05-29T08:05:36.304Z,46.17
2019-05-29T08:08:09.660Z,45.64
2019-05-29T08:10:45.509Z,43.29
2019-05-29T08:13:16.795Z,44.66
2019-05-29T08:15:58.473Z,43.12
2019-05-29T08:18:22.151Z,43.53
2019-05-29T08:20:53.703Z,44.38
2019-05-29T08:23:25.444Z,42.97
2019-05-29T08:25:56.896Z,43.54
2019-05-29T08:28:28.365Z,44.55
2019-05-29T08:31:02.309Z,42.08
2019-05-29T08:33:35.874Z,42.42
2019-05-29T08:36:07.721Z,44.46
2019-05-29T08:38:42.493Z,43.72
2019-05-29T08:41:13.616Z,42.19
2019-05-29T08:43:46.873Z,43.46
2019-05-29T08:46:18.776Z,44.82
2019-05-29T08:48:50.206Z,45.21
2019-05-29T08:51:21.650Z,44.83
2019-05-29T08:53:54.665Z,44.97
2019-05-29T08:56:27.830Z,44.17
2019-05-29T08:58:59.146Z,43.04
2019-05-29T09:01:31.083Z,43.94
2019-05-29T09:04:02.438Z,44.13
2019-05-29T09:06:34.627Z,44.27
2019-05-29T09:09:08.144Z,43.56
2019-05-29T09:11:39.739Z,43.22
2019-05-29T09:14:13.895Z,42.66
2019-05-29T09:16:46.299Z,42.54
2019-05-29T09:19:21.096Z,42.62
2019-05-29T09:21:54.221Z,42.74
2019-05-29T09:24:25.600Z,42.20
2019-05-29T09:26:57.731Z,40.70
2019-05-29T09:29:29.765Z,41.87
2019-05-29T09:32:01.815Z,41.05
2019-05-29T09:34:33.601Z,41.02
2019-05-29T09:37:06.300Z,42.00
2019-05-29T09:39:39.752Z,39.45
2019-05-29T09:42:12.366Z,40.10
2019-05-29T09:44:44.084Z,40.51
2019-05-29T09:47:16.939Z,39.89
2019-05-29T09:49:50.687Z,40.10
2019-05-29T09:52:23.973Z,38.90
2019-05-29T09:54:56.181Z,38.24
2019-05-29T09:57:28.263Z,39.17
2019-05-29T10:00:02.060Z,38.56
2019-05-29T10:02:33.045Z,38.24
2019-05-29T10:05:07.141Z,37.66
2019-05-29T10:07:40.046Z,38.29
2019-05-29T10:10:13.196Z,38.92
2019-05-29T10:12:44.710Z,37.29
2019-05-29T10:15:16.762Z,36.78
2019-05-29T10:17:48.048Z,38.43
2019-05-29T10:20:19.882Z,38.37
2019-05-29T10:22:51.312Z,39.95
2019-05-29T10:25:22.963Z,39.51
2019-05-29T10:27:54.530Z,38.76
2019-05-29T10:30:26.572Z,37.96
2019-05-29T10:32:58.070Z,37.29
2019-05-29T10:35:30.348Z,36.72
2019-05-29T10:38:04.173Z,37.12
2019-05-29T10:40:36.363Z,37.65
2019-05-29T10:43:08.502Z,38.24
2019-05-29T10:45:40.231Z,36.22
2019-05-29T10:48:12.787Z,36.27
2019-05-29T10:50:47.780Z,36.07
2019-05-29T10:53:17.442Z,37.83
2019-05-29T10:55:48.704Z,37.71
2019-05-29T10:58:20.054Z,37.15
2019-05-29T11:00:51.379Z,37.11
2019-05-29T11:03:22.646Z,36.51
2019-05-29T11:05:57.868Z,36.67
2019-05-29T11:08:38.034Z,37.57
2019-05-29T11:11:11.395Z,36.59
2019-05-29T11:13:44.861Z,35.58
2019-05-29T11:16:17.158Z,35.90
2019-05-29T11:18:57.731Z,36.86
2019-05-29T11:21:36.208Z,36.04
2019-05-29T11:24:10.588Z,35.27
2019-05-29T11:26:41.916Z,34.62
2019-05-29T11:29:15.542Z,36.31
2019-05-29T11:31:46.857Z,35.76
2019-05-29T11:34:18.223Z,36.15
2019-05-29T11:36:49.966Z,34.48
2019-05-29T11:39:21.645Z,34.25
2019-05-29T11:41:52.930Z,34.98
2019-05-29T11:44:25.978Z,34.22
2019-05-29T11:46:58.202Z,34.15
2019-05-29T11:49:30.322Z,34.63
2019-05-29T11:52:22.904Z,34.47
2019-05-29T11:54:39.835Z,34.47
2019-05-29T11:57:11.902Z,34.25
2019-05-29T11:59:44.023Z,34.87
2019-05-29T12:02:15.431Z,34.12
2019-05-29T12:04:46.803Z,35.65
2019-05-29T12:07:19.218Z,35.71
2019-05-29T12:09:51.330Z,35.75
2019-05-29T12:12:22.807Z,36.96
2019-05-29T12:15:06.062Z,37.25
2019-05-29T12:17:27.549Z,37.39
2019-05-29T12:20:04.024Z,35.68
2019-05-29T12:22:35.056Z,35.50
2019-05-29T12:25:08.075Z,37.64
2019-05-29T12:27:41.730Z,37.59
2019-05-29T12:30:13.754Z,37.64
2019-05-29T12:32:45.094Z,39.09
2019-05-29T12:35:16.701Z,35.70
2019-05-29T12:37:48.165Z,35.00
2019-05-29T12:40:19.621Z,35.71
2019-05-29T12:42:53.750Z,35.55
2019-05-29T12:45:26.623Z,36.39
2019-05-29T12:47:59.802Z,36.22
2019-05-29T12:50:34.552Z,36.25
2019-05-29T12:53:08.219Z,36.22
2019-05-29T12:55:43.192Z,36.30
2019-05-29T12:58:14.810Z,35.57
2019-05-29T13:00:46.287Z,36.20
2019-05-29T13:03:17.835Z,36.56
2019-05-29T13:05:49.443Z,37.19
2019-05-29T13:08:21.689Z,36.14
2019-05-29T13:10:54.224Z,34.32
2019-05-29T13:13:25.543Z,36.50
2019-05-29T13:15:56.883Z,37.43
2019-05-29T13:18:31.954Z,37.83
2019-05-29T13:21:05.137Z,38.11
2019-05-29T13:23:45.093Z,37.59
2019-05-29T13:26:09.851Z,37.44
2019-05-29T13:28:41.185Z,37.14
2019-05-29T13:31:22.144Z,37.08
2019-05-29T13:33:53.573Z,36.35
2019-05-29T13:36:27.581Z,36.18
2019-05-29T13:39:00.366Z,37.13
2019-05-29T13:41:32.055Z,36.64
2019-05-29T13:44:04.824Z,37.32
2019-05-29T13:46:36.742Z,37.19
2019-05-29T13:49:09.239Z,35.78
2019-05-29T13:51:41.409Z,35.78
2019-05-29T13:54:17.989Z,36.64
2019-05-29T13:56:49.312Z,36.21
2019-05-29T13:59:20.750Z,36.37
2019-05-29T14:01:52.277Z,36.27
2019-05-29T14:04:23.875Z,36.69
2019-05-29T14:06:55.794Z,36.85
2019-05-29T14:09:39.824Z,36.70
2019-05-29T14:12:14.969Z,36.74
2019-05-29T14:14:46.333Z,36.95
2019-05-29T14:17:17.830Z,37.28
2019-05-29T14:19:49.110Z,37.94
2019-05-29T14:22:20.318Z,38.01
2019-05-29T14:24:51.638Z,37.46
2019-05-29T14:27:22.963Z,37.29
2019-05-29T14:29:54.158Z,37.38
2019-05-29T14:32:28.370Z,37.57
2019-05-29T14:34:58.643Z,36.67
2019-05-29T14:37:29.991Z,36.87
2019-05-29T14:40:01.607Z,37.03
2019-05-29T14:42:33.154Z,37.15
2019-05-29T14:45:08.149Z,37.36
2019-05-29T14:47:39.658Z,37.69
2019-05-29T14:50:14.973Z,36.58
2019-05-29T14:52:49.871Z,37.13
2019-05-29T14:55:21.139Z,36.04
2019-05-29T14:57:52.511Z,36.64
2019-05-29T15:00:25.669Z,36.62
2019-05-29T15:02:57.198Z,35.44
2019-05-29T15:05:29.504Z,35.50
2019-05-29T15:08:01.109Z,35.14
2019-05-29T15:10:35.560Z,35.65
2019-05-29T15:13:08.706Z,35.82
2019-05-29T15:15:40.094Z,36.44
2019-05-29T15:18:15.365Z,36.78
2019-05-29T15:20:44.269Z,37.90
2019-05-29T15:23:16.514Z,38.21
2019-05-29T15:25:47.651Z,37.96
2019-05-29T15:28:18.971Z,37.84
2019-05-29T15:30:50.134Z,37.17
2019-05-29T15:33:24.729Z,37.30
2019-05-29T15:35:56.058Z,36.36
2019-05-29T15:38:27.390Z,36.68
2019-05-29T15:40:58.791Z,36.43
2019-05-29T15:43:30.215Z,36.07
2019-05-29T15:46:01.730Z,36.53
2019-05-29T15:48:33.407Z,36.92
2019-05-29T15:51:04.574Z,36.74
2019-05-29T15:53:35.906Z,36.36
2019-05-29T15:56:21.527Z,36.12
2019-05-29T15:58:41.104Z,36.12
2019-05-29T16:01:13.729Z,36.32
2019-05-29T16:03:45.413Z,36.44
2019-05-29T16:06:18.019Z,36.57
2019-05-29T16:08:49.357Z,36.86
2019-05-29T16:11:20.613Z,37.36
2019-05-29T16:13:51.909Z,37.87
2019-05-29T16:16:23.106Z,37.55
2019-05-29T16:18:54.423Z,37.38
2019-05-29T16:21:25.713Z,37.72
2019-05-29T16:23:57.063Z,37.96
2019-05-29T16:26:28.356Z,37.85
2019-05-29T16:28:59.701Z,38.19
2019-05-29T16:31:31.138Z,37.79
2019-05-29T16:34:02.657Z,38.34
2019-05-29T16:36:33.993Z,37.94
2019-05-29T16:39:07.395Z,38.67
2019-05-29T16:41:38.714Z,39.11
2019-05-29T16:44:09.884Z,39.17
2019-05-29T16:46:41.296Z,38.95
2019-05-29T16:49:12.791Z,39.22
2019-05-29T16:51:44.618Z,39.68
2019-05-29T16:54:17.169Z,39.87
2019-05-29T16:56:49.300Z,39.81
2019-05-29T16:59:21.377Z,39.87
2019-05-29T17:01:52.579Z,40.07
2019-05-29T17:04:24.055Z,40.69
2019-05-29T17:06:55.335Z,40.85
2019-05-29T17:09:26.589Z,41.14
2019-05-29T17:11:57.874Z,41.36
2019-05-29T17:14:29.159Z,42.16
2019-05-29T17:17:00.675Z,41.72
2019-05-29T17:19:31.996Z,42.64
2019-05-29T17:22:03.277Z,42.72
2019-05-29T17:24:34.602Z,42.76
2019-05-29T17:27:06.091Z,42.92
2019-05-29T17:29:37.435Z,43.11
2019-05-29T17:32:08.695Z,43.29
2019-05-29T17:34:39.937Z,43.63
2019-05-29T17:37:11.316Z,43.90
2019-05-29T17:39:42.759Z,43.91
2019-05-29T17:42:14.072Z,43.75
2019-05-29T17:44:45.293Z,44.31
2019-05-29T17:47:17.737Z,44.66
2019-05-29T17:49:49.065Z,44.69
2019-05-29T17:52:20.337Z,45.62
2019-05-29T17:54:51.676Z,44.75
2019-05-29T17:57:24.034Z,45.26
2019-05-29T17:59:55.414Z,46.21
2019-05-29T18:02:26.778Z,46.05
2019-05-29T18:04:58.221Z,46.10
2019-05-29T18:07:29.419Z,46.13
2019-05-29T18:10:00.737Z,46.91
2019-05-29T18:12:31.996Z,47.55
2019-05-29T18:15:03.825Z,47.79
2019-05-29T18:17:38.067Z,47.69
2019-05-29T18:20:14.244Z,48.35
2019-05-29T18:22:43.991Z,48.86
2019-05-29T18:25:18.045Z,49.00
2019-05-29T18:27:49.425Z,49.17
2019-05-29T18:30:22.157Z,49.18
2019-05-29T18:32:53.607Z,49.72
2019-05-29T18:35:25.095Z,49.79
2019-05-29T18:37:56.550Z,49.88
2019-05-29T18:40:28.466Z,49.71
2019-05-29T18:42:59.735Z,50.16
2019-05-29T18:45:31.085Z,49.69
2019-05-29T18:48:02.456Z,49.74
2019-05-29T18:50:33.785Z,49.90
2019-05-29T18:53:05.183Z,49.86
2019-05-29T18:55:36.489Z,50.41
2019-05-29T18:58:08.766Z,50.47
2019-05-29T19:00:39.919Z,50.45
2019-05-29T19:03:11.205Z,50.61
2019-05-29T19:05:43.503Z,50.86
2019-05-29T19:08:14.800Z,51.36
2019-05-29T19:10:46.115Z,51.44
2019-05-29T19:13:17.398Z,52.14
2019-05-29T19:15:48.808Z,52.16
2019-05-29T19:18:20.092Z,52.36
2019-05-29T19:20:51.305Z,52.45
2019-05-29T19:23:22.602Z,52.64
2019-05-29T19:25:53.960Z,52.96
2019-05-29T19:28:25.177Z,53.42
2019-05-29T19:30:56.518Z,54.05
2019-05-29T19:33:27.799Z,54.48
2019-05-29T19:36:00.178Z,55.14
2019-05-29T19:38:31.960Z,54.80
2019-05-29T19:41:03.362Z,54.82
2019-05-29T19:43:34.606Z,55.50
2019-05-29T19:46:05.934Z,55.64
2019-05-29T19:48:38.846Z,55.89
2019-05-29T19:51:10.184Z,57.09
2019-05-29T19:53:42.268Z,56.44
2019-05-29T19:56:13.495Z,56.99
2019-05-29T19:58:45.589Z,57.13
2019-05-29T20:01:30.159Z,57.61
2019-05-29T20:03:49.927Z,57.46
2019-05-29T20:06:21.216Z,57.96
2019-05-29T20:08:52.492Z,58.28
2019-05-29T20:11:23.853Z,58.64
2019-05-29T20:13:55.104Z,58.80
2019-05-29T20:16:26.451Z,58.90
2019-05-29T20:18:57.737Z,59.68
2019-05-29T20:21:30.650Z,59.79
2019-05-29T20:24:01.804Z,60.57
2019-05-29T20:26:33.241Z,60.62
2019-05-29T20:29:04.627Z,60.42
2019-05-29T20:31:36.571Z,60.45
2019-05-29T20:34:07.921Z,60.25
2019-05-29T20:36:40.033Z,60.31
2019-05-29T20:39:11.641Z,60.30
2019-05-29T20:41:43.596Z,60.57
2019-05-29T20:44:14.957Z,60.30
2019-05-29T20:46:46.284Z,60.28
2019-05-29T20:49:17.571Z,60.65
2019-05-29T20:51:48.770Z,61.13
2019-05-29T20:54:19.925Z,61.38
2019-05-29T20:56:52.356Z,60.89
2019-05-29T20:59:24.519Z,61.26
2019-05-29T21:01:55.739Z,61.60
2019-05-29T21:04:27.053Z,61.01
2019-05-29T21:06:58.569Z,60.63
2019-05-29T21:09:29.712Z,60.48
2019-05-29T21:12:01.024Z,60.24
2019-05-29T21:14:33.450Z,60.01
2019-05-29T21:17:04.904Z,60.42
2019-05-29T21:19:36.474Z,60.31
2019-05-29T21:22:07.889Z,60.20
2019-05-29T21:24:40.620Z,59.74
2019-05-29T21:27:12.077Z,59.58
2019-05-29T21:29:43.461Z,59.45
2019-05-29T21:32:14.762Z,60.18
2019-05-29T21:34:46.268Z,59.80
2019-05-29T21:37:17.613Z,59.88
2019-05-29T21:39:49.595Z,59.16
2019-05-29T21:42:20.950Z,59.20
2019-05-29T21:44:52.223Z,59.06
2019-05-29T21:47:23.500Z,58.58
2019-05-29T21:49:54.791Z,58.77
2019-05-29T21:52:26.124Z,58.89
2019-05-29T21:54:57.416Z,58.78
2019-05-29T21:57:28.757Z,58.58
2019-05-29T22:00:00.907Z,58.47
2019-05-29T22:02:32.242Z,58.89
2019-05-29T22:05:04.285Z,59.01
2019-05-29T22:07:35.729Z,58.97
2019-05-29T22:10:07.715Z,58.48
2019-05-29T22:12:39.064Z,58.17
2019-05-29T22:15:11.927Z,57.95
2019-05-29T22:17:43.416Z,58.05
2019-05-29T22:20:14.679Z,58.22
2019-05-29T22:22:46.218Z,58.36
2019-05-29T22:25:18.028Z,57.66
2019-05-29T22:27:49.352Z,57.93
2019-05-29T22:30:20.817Z,58.07
2019-05-29T22:32:53.275Z,58.18
2019-05-29T22:35:24.650Z,58.51
2019-05-29T22:37:55.991Z,58.39
2019-05-29T22:40:27.995Z,58.66
2019-05-29T22:42:59.851Z,58.54
2019-05-29T22:45:31.149Z,58.55
2019-05-29T22:48:02.513Z,58.97
2019-05-29T22:50:33.778Z,59.01
2019-05-29T22:53:05.078Z,59.48
2019-05-29T22:55:36.368Z,59.63
2019-05-29T22:58:07.720Z,59.97
2019-05-29T23:00:39.871Z,59.64
2019-05-29T23:03:11.218Z,60.26
2019-05-29T23:05:42.485Z,60.33
2019-05-29T23:08:13.886Z,60.55
2019-05-29T23:10:45.163Z,60.36
2019-05-29T23:13:16.473Z,60.36
2019-05-29T23:15:47.828Z,60.67
2019-05-29T23:18:19.165Z,60.67
2019-05-29T23:20:50.491Z,60.99
2019-05-29T23:23:21.812Z,60.65
2019-05-29T23:25:52.960Z,60.92
2019-05-29T23:28:24.306Z,60.62
2019-05-29T23:30:56.489Z,60.92
2019-05-29T23:33:28.168Z,60.93
2019-05-29T23:35:59.420Z,61.51
2019-05-29T23:38:30.881Z,61.52
2019-05-29T23:41:03.625Z,61.33
2019-05-29T23:43:35.095Z,61.79
2019-05-29T23:46:06.410Z,61.99
2019-05-29T23:48:37.725Z,61.94
2019-05-29T23:51:09.001Z,61.93
2019-05-29T23:53:40.327Z,61.74
2019-05-29T23:56:11.552Z,62.46
2019-05-29T23:58:42.864Z,62.48
